KGLW/GLW METAR and TAF weather

Enter ICAO airport designator
Station Type Date Time Source
KGLW METAR 2021/08/04 19:15 UTC NOAA

KGLW 041915Z AUTO 04008KT 10SM BKN065 BKN080 27/13 A3007 RMK AO2 T02730132


Station Type Date Time Source
KGLW Decoded METAR 2021/08/04 19:15 UTC NOAA

Glasgow, Glasgow Municipal Airport, KY, United States (KGLW) 37-01-54N 085-57-13W
Aug 04, 2021 - 03:15 PM EDT / 2021.08.04 1915 UTC
Wind: from the NE (040 degrees) at 9 MPH (8 KT):0
Visibility: 10 mile(s):0
Sky conditions: mostly cloudy
Temperature: 81.1 F (27.3 C)
Dew Point: 55.8 F (13.2 C)
Relative Humidity: 41%
Pressure (altimeter): 30.07 in. Hg (1018 hPa)
ob: KGLW 041915Z AUTO 04008KT 10SM BKN065 BKN080 27/13 A3007 RMK AO2 T02730132
cycle: 19

Station Type Date Time Source
KGLW TAF UTC NOAA

Error!

Example: see airport list